Blankenberge, Belgium
Current Conditions -  °F | °C
As of 4:50 PM on Tuesday 21 Oct 2014 (Local Time) from EBOS Reporting Station
Scattered Clouds Scattered Clouds  
Wind Chill: 11°   Ceiling: Unl
Heat Index: 11°   Visibility: 6mi
Dew Point:   Wind: 23mph
Humidity: 71%   Direction: 290°WNW
Pressure: 29.68"   Gusts: NA
Location:  51.31°N, 3.13°E
Report Text: EBOS 211450Z 29020KT 9999 FEW023TCU SCT048 11/06 Q1005 RESHRA TEMPO 29025G38KT 3000 SHRA
Loading
Personal Weather Stations






























Interactive Weather Map
Tropical Storm Tracking
New forecast layout! Learn more

10-Day Weather Forecast

Advertisements
Track Severe Weather on mobile